GRZ578 Details

Departure: King Salmon Airport (PAKN)
Arrival: Bethel Airport (PABE)
Route: AKN J123 BET


Current Weather Information
PAKN 230654Z 08027G46KT 10SM -RA OVC065 08/04 A2891 RMK PK WND 10049/0637 SLP791 P0000 T00780039 VIA AUTODIAL
PABE 230653Z 03018G22KT 10SM BKN070 OVC090 02/00 A2934 RMK AO2 PK WND 04029/0556 SLP936 T00220000